sensor_id;sensor_type;location;lat;lon;timestamp;pressure;altitude;pressure_sealevel;temperature;humidity
10869;BME280;62667;48.698;8.762;2024-02-21T00:02:05;97212.09;;;4.37;73.91
10869;BME280;62667;48.698;8.762;2024-02-21T00:04:31;97209.59;;;4.44;73.95
10869;BME280;62667;48.698;8.762;2024-02-21T00:07:00;97201.72;;;4.51;73.88
10869;BME280;62667;48.698;8.762;2024-02-21T00:09:30;97200.34;;;4.57;73.74
10869;BME280;62667;48.698;8.762;2024-02-21T00:12:03;97204.16;;;4.56;73.83
10869;BME280;62667;48.698;8.762;2024-02-21T00:14:30;97186.41;;;4.55;73.63
10869;BME280;62667;48.698;8.762;2024-02-21T00:16:58;97186.06;;;4.57;73.66
10869;BME280;62667;48.698;8.762;2024-02-21T00:19:25;97185.28;;;4.56;73.43
10869;BME280;62667;48.698;8.762;2024-02-21T00:21:51;97176.41;;;4.56;73.64
10869;BME280;62667;48.698;8.762;2024-02-21T00:24:18;97164.81;;;4.55;73.63
10869;BME280;62667;48.698;8.762;2024-02-21T00:26:44;97172.22;;;4.58;73.47
10869;BME280;62667;48.698;8.762;2024-02-21T00:29:16;97167.19;;;4.57;73.13
10869;BME280;62667;48.698;8.762;2024-02-21T00:31:42;97164.59;;;4.60;73.40
10869;BME280;62667;48.698;8.762;2024-02-21T00:34:16;97168.59;;;4.66;73.25
10869;BME280;62667;48.698;8.762;2024-02-21T00:36:42;97168.28;;;4.68;73.23
10869;BME280;62667;48.698;8.762;2024-02-21T00:39:08;97162.88;;;4.68;73.24
10869;BME280;62667;48.698;8.762;2024-02-21T00:41:35;97155.81;;;4.63;73.41
10869;BME280;62667;48.698;8.762;2024-02-21T00:44:07;97149.88;;;4.58;73.41
10869;BME280;62667;48.698;8.762;2024-02-21T00:46:38;97144.41;;;4.54;73.51
10869;BME280;62667;48.698;8.762;2024-02-21T00:49:08;97147.19;;;4.58;73.56
10869;BME280;62667;48.698;8.762;2024-02-21T00:51:34;97142.69;;;4.62;73.77
10869;BME280;62667;48.698;8.762;2024-02-21T00:54:01;97135.81;;;4.64;73.82
10869;BME280;62667;48.698;8.762;2024-02-21T00:56:27;97134.34;;;4.67;73.73
10869;BME280;62667;48.698;8.762;2024-02-21T00:58:59;97136.59;;;4.65;73.54
10869;BME280;62667;48.698;8.762;2024-02-21T01:01:28;97134.94;;;4.60;73.63
10869;BME280;62667;48.698;8.762;2024-02-21T01:03:56;97133.38;;;4.59;73.43
10869;BME280;62667;48.698;8.762;2024-02-21T01:06:23;97133.38;;;4.59;73.29
10869;BME280;62667;48.698;8.762;2024-02-21T01:08:50;97125.38;;;4.63;73.27
10869;BME280;62667;48.698;8.762;2024-02-21T01:11:16;97121.91;;;4.62;73.18
10869;BME280;62667;48.698;8.762;2024-02-21T01:13:43;97120.06;;;4.66;72.92
10869;BME280;62667;48.698;8.762;2024-02-21T01:16:14;97115.81;;;4.65;73.26
10869;BME280;62667;48.698;8.762;2024-02-21T01:18:41;97123.19;;;4.68;73.06
10869;BME280;62667;48.698;8.762;2024-02-21T01:21:11;97113.53;;;4.67;72.82
10869;BME280;62667;48.698;8.762;2024-02-21T01:23:38;97110.06;;;4.67;73.01
10869;BME280;62667;48.698;8.762;2024-02-21T01:26:13;97098.22;;;4.71;72.77
10869;BME280;62667;48.698;8.762;2024-02-21T01:28:40;97108.94;;;4.68;72.77
10869;BME280;62667;48.698;8.762;2024-02-21T01:31:07;97098.91;;;4.68;72.87
10869;BME280;62667;48.698;8.762;2024-02-21T01:33:34;97091.28;;;4.70;72.80
10869;BME280;62667;48.698;8.762;2024-02-21T01:36:01;97094.13;;;4.62;72.84
10869;BME280;62667;48.698;8.762;2024-02-21T01:38:29;97084.94;;;4.63;73.07
10869;BME280;62667;48.698;8.762;2024-02-21T01:41:01;97079.19;;;4.64;72.74
10869;BME280;62667;48.698;8.762;2024-02-21T01:43:27;97077.28;;;4.65;72.82
10869;BME280;62667;48.698;8.762;2024-02-21T01:45:55;97086.41;;;4.60;72.34
10869;BME280;62667;48.698;8.762;2024-02-21T01:48:23;97073.88;;;4.52;72.56
10869;BME280;62667;48.698;8.762;2024-02-21T01:50:55;97071.69;;;4.42;72.91
10869;BME280;62667;48.698;8.762;2024-02-21T01:53:24;97057.31;;;4.38;73.16
10869;BME280;62667;48.698;8.762;2024-02-21T01:55:53;97057.84;;;4.43;72.99
10869;BME280;62667;48.698;8.762;2024-02-21T01:58:24;97049.78;;;4.43;72.89
10869;BME280;62667;48.698;8.762;2024-02-21T02:00:50;97048.72;;;4.48;72.92
10869;BME280;62667;48.698;8.762;2024-02-21T02:03:17;97041.06;;;4.50;72.91
10869;BME280;62667;48.698;8.762;2024-02-21T02:05:48;97038.09;;;4.55;72.71
10869;BME280;62667;48.698;8.762;2024-02-21T02:08:16;97043.75;;;4.50;72.84
10869;BME280;62667;48.698;8.762;2024-02-21T02:10:43;97033.78;;;4.51;73.25
10869;BME280;62667;48.698;8.762;2024-02-21T02:13:12;97026.91;;;4.53;72.70
10869;BME280;62667;48.698;8.762;2024-02-21T02:15:42;97024.03;;;4.46;72.74
10869;BME280;62667;48.698;8.762;2024-02-21T02:18:09;97017.06;;;4.45;73.17
10869;BME280;62667;48.698;8.762;2024-02-21T02:20:40;97010.97;;;4.48;72.99
10869;BME280;62667;48.698;8.762;2024-02-21T02:23:10;97005.25;;;4.50;73.00
10869;BME280;62667;48.698;8.762;2024-02-21T02:25:39;97005.16;;;4.62;73.07
10869;BME280;62667;48.698;8.762;2024-02-21T02:28:09;96996.00;;;4.66;72.69
10869;BME280;62667;48.698;8.762;2024-02-21T02:30:36;96984.00;;;4.79;72.46
10869;BME280;62667;48.698;8.762;2024-02-21T02:33:03;96995.75;;;4.71;72.42
10869;BME280;62667;48.698;8.762;2024-02-21T02:35:29;97013.50;;;4.72;72.54
10869;BME280;62667;48.698;8.762;2024-02-21T02:37:56;97031.69;;;4.75;72.36
10869;BME280;62667;48.698;8.762;2024-02-21T02:40:22;97021.16;;;4.39;73.53
10869;BME280;62667;48.698;8.762;2024-02-21T02:42:53;97012.53;;;4.18;74.22
10869;BME280;62667;48.698;8.762;2024-02-21T02:45:24;96998.75;;;3.92;75.04
10869;BME280;62667;48.698;8.762;2024-02-21T02:47:51;96995.09;;;3.84;75.92
10869;BME280;62667;48.698;8.762;2024-02-21T02:50:19;96995.19;;;3.88;76.39
10869;BME280;62667;48.698;8.762;2024-02-21T02:52:46;96986.63;;;3.98;76.32
10869;BME280;62667;48.698;8.762;2024-02-21T02:55:15;96984.38;;;4.15;76.00
10869;BME280;62667;48.698;8.762;2024-02-21T02:57:44;96983.53;;;4.27;75.32
10869;BME280;62667;48.698;8.762;2024-02-21T03:00:13;96975.69;;;4.37;75.10
10869;BME280;62667;48.698;8.762;2024-02-21T03:02:42;96976.03;;;4.36;74.81
10869;BME280;62667;48.698;8.762;2024-02-21T03:05:14;96974.19;;;4.40;74.69
10869;BME280;62667;48.698;8.762;2024-02-21T03:07:41;96961.25;;;4.45;74.77
10869;BME280;62667;48.698;8.762;2024-02-21T03:10:14;96951.69;;;4.48;74.68
10869;BME280;62667;48.698;8.762;2024-02-21T03:12:45;96949.41;;;4.50;74.71
10869;BME280;62667;48.698;8.762;2024-02-21T03:15:13;96947.16;;;4.52;74.45
10869;BME280;62667;48.698;8.762;2024-02-21T03:17:40;96960.03;;;4.59;74.14
10869;BME280;62667;48.698;8.762;2024-02-21T03:20:07;96955.50;;;4.63;73.72
10869;BME280;62667;48.698;8.762;2024-02-21T03:22:37;96948.03;;;4.56;73.77
10869;BME280;62667;48.698;8.762;2024-02-21T03:25:06;96937.66;;;4.58;73.83
10869;BME280;62667;48.698;8.762;2024-02-21T03:27:33;96933.41;;;4.57;73.69
10869;BME280;62667;48.698;8.762;2024-02-21T03:29:59;96934.97;;;4.58;73.75
10869;BME280;62667;48.698;8.762;2024-02-21T03:32:31;96941.06;;;4.55;73.91
10869;BME280;62667;48.698;8.762;2024-02-21T03:34:57;96944.53;;;4.56;73.69
10869;BME280;62667;48.698;8.762;2024-02-21T03:37:24;96947.22;;;4.56;73.30
10869;BME280;62667;48.698;8.762;2024-02-21T03:39:57;96949.88;;;4.52;73.54
10869;BME280;62667;48.698;8.762;2024-02-21T03:42:24;96934.38;;;4.49;73.71
10869;BME280;62667;48.698;8.762;2024-02-21T03:44:50;96927.78;;;4.46;73.86
10869;BME280;62667;48.698;8.762;2024-02-21T03:47:17;96915.00;;;4.43;73.72
10869;BME280;62667;48.698;8.762;2024-02-21T03:49:51;96907.28;;;4.42;74.16
10869;BME280;62667;48.698;8.762;2024-02-21T03:52:17;96905.69;;;4.41;74.24
10869;BME280;62667;48.698;8.762;2024-02-21T03:54:44;96905.28;;;4.39;74.03
10869;BME280;62667;48.698;8.762;2024-02-21T03:57:10;96897.97;;;4.39;73.87
10869;BME280;62667;48.698;8.762;2024-02-21T03:59:37;96900.16;;;4.34;73.89
10869;BME280;62667;48.698;8.762;2024-02-21T04:02:06;96909.34;;;4.33;74.02
10869;BME280;62667;48.698;8.762;2024-02-21T04:04:34;96914.31;;;4.31;74.00
10869;BME280;62667;48.698;8.762;2024-02-21T04:07:04;96898.16;;;4.31;73.89
10869;BME280;62667;48.698;8.762;2024-02-21T04:09:32;96900.25;;;4.22;74.13
10869;BME280;62667;48.698;8.762;2024-02-21T04:11:58;96893.19;;;4.17;74.29
10869;BME280;62667;48.698;8.762;2024-02-21T04:14:25;96890.59;;;4.21;74.49
10869;BME280;62667;48.698;8.762;2024-02-21T04:16:51;96887.22;;;4.24;74.29
10869;BME280;62667;48.698;8.762;2024-02-21T04:19:25;96894.59;;;4.27;74.06
10869;BME280;62667;48.698;8.762;2024-02-21T04:21:51;96899.19;;;4.26;74.06
10869;BME280;62667;48.698;8.762;2024-02-21T04:24:19;96892.31;;;4.29;73.95
10869;BME280;62667;48.698;8.762;2024-02-21T04:26:46;96893.13;;;4.29;73.84
10869;BME280;62667;48.698;8.762;2024-02-21T04:29:12;96893.44;;;4.28;74.12
10869;BME280;62667;48.698;8.762;2024-02-21T04:31:39;96885.56;;;4.19;74.14
10869;BME280;62667;48.698;8.762;2024-02-21T04:34:06;96892.25;;;4.10;74.29
10869;BME280;62667;48.698;8.762;2024-02-21T04:36:32;96902.06;;;4.02;74.51
10869;BME280;62667;48.698;8.762;2024-02-21T04:38:59;96903.47;;;3.80;75.82
10869;BME280;62667;48.698;8.762;2024-02-21T04:41:27;96894.00;;;3.71;76.06
10869;BME280;62667;48.698;8.762;2024-02-21T04:43:58;96901.63;;;3.69;76.07
10869;BME280;62667;48.698;8.762;2024-02-21T04:46:25;96899.28;;;3.67;76.45
10869;BME280;62667;48.698;8.762;2024-02-21T04:48:51;96894.06;;;3.74;76.31
10869;BME280;62667;48.698;8.762;2024-02-21T04:51:18;96890.69;;;3.77;76.28
10869;BME280;62667;48.698;8.762;2024-02-21T04:53:44;96895.97;;;3.74;76.08
10869;BME280;62667;48.698;8.762;2024-02-21T04:56:15;96895.22;;;3.73;76.33
10869;BME280;62667;48.698;8.762;2024-02-21T04:58:45;96894.06;;;3.74;76.28
10869;BME280;62667;48.698;8.762;2024-02-21T05:01:14;96891.81;;;3.76;76.23
10869;BME280;62667;48.698;8.762;2024-02-21T05:03:41;96888.34;;;3.76;76.20
10869;BME280;62667;48.698;8.762;2024-02-21T05:06:09;96884.19;;;3.78;76.17
10869;BME280;62667;48.698;8.762;2024-02-21T05:08:35;96879.22;;;3.80;76.08
10869;BME280;62667;48.698;8.762;2024-02-21T05:11:02;96865.84;;;3.84;76.02
10869;BME280;62667;48.698;8.762;2024-02-21T05:13:29;96873.59;;;3.86;75.92
10869;BME280;62667;48.698;8.762;2024-02-21T05:15:57;96867.50;;;3.89;75.89
10869;BME280;62667;48.698;8.762;2024-02-21T05:18:26;96852.91;;;3.90;75.55
10869;BME280;62667;48.698;8.762;2024-02-21T05:20:53;96854.47;;;3.91;75.38
10869;BME280;62667;48.698;8.762;2024-02-21T05:23:22;96846.03;;;3.92;75.61
10869;BME280;62667;48.698;8.762;2024-02-21T05:25:59;96852.47;;;4.03;74.81
10869;BME280;62667;48.698;8.762;2024-02-21T05:28:26;96846.56;;;3.98;74.71
10869;BME280;62667;48.698;8.762;2024-02-21T05:30:52;96833.88;;;3.98;74.71
10869;BME280;62667;48.698;8.762;2024-02-21T05:33:22;96826.50;;;3.95;74.51
10869;BME280;62667;48.698;8.762;2024-02-21T05:35:51;96824.16;;;3.78;74.80
10869;BME280;62667;48.698;8.762;2024-02-21T05:38:26;96831.03;;;3.75;75.17
10869;BME280;62667;48.698;8.762;2024-02-21T05:40:52;96832.34;;;3.66;75.54
10869;BME280;62667;48.698;8.762;2024-02-21T05:43:19;96829.81;;;3.57;75.70
10869;BME280;62667;48.698;8.762;2024-02-21T05:45:45;96827.13;;;3.57;75.98
10869;BME280;62667;48.698;8.762;2024-02-21T05:48:12;96817.47;;;3.56;76.16
10869;BME280;62667;48.698;8.762;2024-02-21T05:50:42;96819.72;;;3.54;76.10
10869;BME280;62667;48.698;8.762;2024-02-21T05:53:11;96824.41;;;3.57;75.91
10869;BME280;62667;48.698;8.762;2024-02-21T05:55:38;96828.59;;;3.55;76.04
10869;BME280;62667;48.698;8.762;2024-02-21T05:58:05;96832.91;;;3.59;75.44
10869;BME280;62667;48.698;8.762;2024-02-21T06:00:32;96821.56;;;3.50;75.88
10869;BME280;62667;48.698;8.762;2024-02-21T06:02:59;96818.06;;;3.34;76.22
10869;BME280;62667;48.698;8.762;2024-02-21T06:05:25;96816.16;;;3.35;76.37
10869;BME280;62667;48.698;8.762;2024-02-21T06:07:54;96816.22;;;3.38;76.30
10869;BME280;62667;48.698;8.762;2024-02-21T06:10:21;96817.63;;;3.32;76.49
10869;BME280;62667;48.698;8.762;2024-02-21T06:12:50;96821.63;;;3.38;76.18
10869;BME280;62667;48.698;8.762;2024-02-21T06:15:19;96823.88;;;3.36;76.39
10869;BME280;62667;48.698;8.762;2024-02-21T06:17:46;96831.50;;;3.34;76.68
10869;BME280;62667;48.698;8.762;2024-02-21T06:20:13;96829.19;;;3.33;76.29
10869;BME280;62667;48.698;8.762;2024-02-21T06:22:39;96834.81;;;3.28;76.52
10869;BME280;62667;48.698;8.762;2024-02-21T06:25:08;96841.66;;;3.25;76.72
10869;BME280;62667;48.698;8.762;2024-02-21T06:27:34;96838.09;;;3.21;76.75
10869;BME280;62667;48.698;8.762;2024-02-21T06:30:01;96844.69;;;3.24;76.89
10869;BME280;62667;48.698;8.762;2024-02-21T06:32:28;96833.13;;;3.23;77.11
10869;BME280;62667;48.698;8.762;2024-02-21T06:34:56;96833.59;;;3.25;76.92
10869;BME280;62667;48.698;8.762;2024-02-21T06:37:23;96838.72;;;3.30;76.85
10869;BME280;62667;48.698;8.762;2024-02-21T06:39:49;96823.88;;;3.36;76.81
10869;BME280;62667;48.698;8.762;2024-02-21T06:42:17;96817.13;;;3.42;76.29
10869;BME280;62667;48.698;8.762;2024-02-21T06:44:44;96828.06;;;3.49;76.34
10869;BME280;62667;48.698;8.762;2024-02-21T06:47:11;96814.44;;;3.58;76.47
10869;BME280;62667;48.698;8.762;2024-02-21T06:49:37;96810.34;;;3.64;75.78
10869;BME280;62667;48.698;8.762;2024-02-21T06:52:04;96809.38;;;3.72;75.35
10869;BME280;62667;48.698;8.762;2024-02-21T06:54:31;96806.97;;;3.82;74.51
10869;BME280;62667;48.698;8.762;2024-02-21T06:56:58;96800.88;;;3.86;74.08
10869;BME280;62667;48.698;8.762;2024-02-21T06:59:26;96803.31;;;3.91;73.77
10869;BME280;62667;48.698;8.762;2024-02-21T07:01:53;96812.75;;;3.84;73.75
10869;BME280;62667;48.698;8.762;2024-02-21T07:04:20;96813.41;;;3.78;73.60
10869;BME280;62667;48.698;8.762;2024-02-21T07:06:47;96802.25;;;3.79;73.44
10869;BME280;62667;48.698;8.762;2024-02-21T07:09:13;96805.84;;;3.83;73.86
10869;BME280;62667;48.698;8.762;2024-02-21T07:11:41;96803.56;;;3.86;73.94
10869;BME280;62667;48.698;8.762;2024-02-21T07:14:08;96801.88;;;3.97;73.79
10869;BME280;62667;48.698;8.762;2024-02-21T07:16:36;96800.22;;;4.08;73.41
10869;BME280;62667;48.698;8.762;2024-02-21T07:19:02;96786.22;;;4.18;73.26
10869;BME280;62667;48.698;8.762;2024-02-21T07:21:29;96788.72;;;4.26;73.16
10869;BME280;62667;48.698;8.762;2024-02-21T07:23:56;96786.25;;;4.37;73.04
10869;BME280;62667;48.698;8.762;2024-02-21T07:26:23;96777.81;;;4.38;72.57
10869;BME280;62667;48.698;8.762;2024-02-21T07:28:49;96772.63;;;4.49;72.33
10869;BME280;62667;48.698;8.762;2024-02-21T07:31:17;96777.47;;;4.59;72.17
10869;BME280;62667;48.698;8.762;2024-02-21T07:33:45;96776.97;;;4.73;71.34
10869;BME280;62667;48.698;8.762;2024-02-21T07:36:15;96769.53;;;4.85;70.90
10869;BME280;62667;48.698;8.762;2024-02-21T07:38:42;96760.56;;;5.00;70.87
10869;BME280;62667;48.698;8.762;2024-02-21T07:41:09;96760.59;;;5.04;70.25
10869;BME280;62667;48.698;8.762;2024-02-21T07:43:37;96760.78;;;5.15;69.55
10869;BME280;62667;48.698;8.762;2024-02-21T07:46:05;96758.81;;;5.11;69.61
10869;BME280;62667;48.698;8.762;2024-02-21T07:48:31;96754.69;;;5.18;69.59
10869;BME280;62667;48.698;8.762;2024-02-21T07:50:59;96753.97;;;5.21;70.10
10869;BME280;62667;48.698;8.762;2024-02-21T07:53:26;96755.97;;;5.24;70.08
10869;BME280;62667;48.698;8.762;2024-02-21T07:55:54;96768.25;;;5.21;69.35
10869;BME280;62667;48.698;8.762;2024-02-21T07:58:21;96776.56;;;5.13;70.02
10869;BME280;62667;48.698;8.762;2024-02-21T08:00:48;96773.50;;;5.14;70.53
10869;BME280;62667;48.698;8.762;2024-02-21T08:03:14;96784.53;;;5.05;69.65
10869;BME280;62667;48.698;8.762;2024-02-21T08:05:43;96785.28;;;5.06;69.17
10869;BME280;62667;48.698;8.762;2024-02-21T08:08:13;96778.22;;;4.98;69.61
10869;BME280;62667;48.698;8.762;2024-02-21T08:10:45;96770.91;;;4.98;70.01
10869;BME280;62667;48.698;8.762;2024-02-21T08:13:12;96762.81;;;4.98;69.77
10869;BME280;62667;48.698;8.762;2024-02-21T08:15:38;96763.25;;;5.00;69.81
10869;BME280;62667;48.698;8.762;2024-02-21T08:18:07;96753.13;;;5.17;69.69
10869;BME280;62667;48.698;8.762;2024-02-21T08:20:33;96752.66;;;5.34;69.28
10869;BME280;62667;48.698;8.762;2024-02-21T08:23:12;96743.09;;;5.62;69.67
10869;BME280;62667;48.698;8.762;2024-02-21T08:25:38;96736.00;;;6.03;69.87
10869;BME280;62667;48.698;8.762;2024-02-21T08:28:05;96729.38;;;6.27;67.91
10869;BME280;62667;48.698;8.762;2024-02-21T08:30:33;96727.81;;;6.26;66.37
10869;BME280;62667;48.698;8.762;2024-02-21T08:32:59;96724.22;;;6.45;66.21
10869;BME280;62667;48.698;8.762;2024-02-21T08:35:26;96727.16;;;6.66;66.33
10869;BME280;62667;48.698;8.762;2024-02-21T08:37:53;96729.63;;;6.81;65.51
10869;BME280;62667;48.698;8.762;2024-02-21T08:40:21;96715.03;;;6.86;64.97
10869;BME280;62667;48.698;8.762;2024-02-21T08:42:47;96714.53;;;6.77;64.80
10869;BME280;62667;48.698;8.762;2024-02-21T08:45:14;96706.06;;;6.78;64.18
10869;BME280;62667;48.698;8.762;2024-02-21T08:47:41;96702.22;;;6.83;64.09
10869;BME280;62667;48.698;8.762;2024-02-21T08:50:09;96698.19;;;7.03;63.50
10869;BME280;62667;48.698;8.762;2024-02-21T08:52:36;96690.13;;;7.10;62.35
10869;BME280;62667;48.698;8.762;2024-02-21T08:55:03;96694.56;;;6.92;63.15
10869;BME280;62667;48.698;8.762;2024-02-21T08:57:34;96687.63;;;6.91;64.73
10869;BME280;62667;48.698;8.762;2024-02-21T09:00:08;96697.09;;;7.11;62.64
10869;BME280;62667;48.698;8.762;2024-02-21T09:02:53;96690.13;;;7.10;63.67
10869;BME280;62667;48.698;8.762;2024-02-21T09:05:21;96695.53;;;7.10;63.42
10869;BME280;62667;48.698;8.762;2024-02-21T09:07:47;96687.91;;;7.23;63.20
10869;BME280;62667;48.698;8.762;2024-02-21T09:10:14;96691.00;;;7.25;62.26
10869;BME280;62667;48.698;8.762;2024-02-21T09:12:47;96685.97;;;7.23;63.01
10869;BME280;62667;48.698;8.762;2024-02-21T09:15:14;96681.50;;;6.97;63.09
10869;BME280;62667;48.698;8.762;2024-02-21T09:17:40;96682.22;;;6.91;63.78
10869;BME280;62667;48.698;8.762;2024-02-21T09:20:10;96679.34;;;7.14;62.12
10869;BME280;62667;48.698;8.762;2024-02-21T09:22:37;96681.69;;;7.19;62.58
10869;BME280;62667;48.698;8.762;2024-02-21T09:25:06;96688.63;;;7.16;62.48
10869;BME280;62667;48.698;8.762;2024-02-21T09:27:32;96683.13;;;7.06;61.50
10869;BME280;62667;48.698;8.762;2024-02-21T09:30:00;96680.13;;;7.14;63.19
10869;BME280;62667;48.698;8.762;2024-02-21T09:32:27;96668.59;;;7.24;62.24
10869;BME280;62667;48.698;8.762;2024-02-21T09:34:54;96671.00;;;7.36;62.65
10869;BME280;62667;48.698;8.762;2024-02-21T09:37:21;96669.97;;;7.51;61.03
10869;BME280;62667;48.698;8.762;2024-02-21T09:39:50;96665.25;;;7.45;61.95
10869;BME280;62667;48.698;8.762;2024-02-21T09:42:21;96660.06;;;7.77;61.60
10869;BME280;62667;48.698;8.762;2024-02-21T09:44:50;96648.84;;;7.75;60.61
10869;BME280;62667;48.698;8.762;2024-02-21T09:47:22;96650.84;;;7.88;60.17
10869;BME280;62667;48.698;8.762;2024-02-21T09:49:52;96647.44;;;8.02;58.85
10869;BME280;62667;48.698;8.762;2024-02-21T09:52:25;96649.53;;;8.33;59.85
10869;BME280;62667;48.698;8.762;2024-02-21T09:54:53;96643.00;;;8.41;59.77
10869;BME280;62667;48.698;8.762;2024-02-21T09:57:22;96643.06;;;8.69;58.04
10869;BME280;62667;48.698;8.762;2024-02-21T09:59:51;96646.19;;;8.71;59.63
10869;BME280;62667;48.698;8.762;2024-02-21T10:02:19;96643.47;;;8.71;58.74
10869;BME280;62667;48.698;8.762;2024-02-21T10:04:46;96641.91;;;8.67;58.36
10869;BME280;62667;48.698;8.762;2024-02-21T10:07:12;96630.22;;;8.52;58.56
10869;BME280;62667;48.698;8.762;2024-02-21T10:09:39;96636.75;;;8.30;59.05
10869;BME280;62667;48.698;8.762;2024-02-21T10:12:08;96630.28;;;8.66;58.08
10869;BME280;62667;48.698;8.762;2024-02-21T10:14:36;96628.38;;;8.92;58.54
10869;BME280;62667;48.698;8.762;2024-02-21T10:17:02;96622.94;;;9.13;58.48
10869;BME280;62667;48.698;8.762;2024-02-21T10:19:35;96613.66;;;9.28;58.22
10869;BME280;62667;48.698;8.762;2024-02-21T10:22:03;96616.75;;;9.37;57.56
10869;BME280;62667;48.698;8.762;2024-02-21T10:24:30;96607.03;;;9.50;57.89
10869;BME280;62667;48.698;8.762;2024-02-21T10:27:05;96613.56;;;9.81;55.76
10869;BME280;62667;48.698;8.762;2024-02-21T10:29:33;96596.50;;;9.70;56.14
10869;BME280;62667;48.698;8.762;2024-02-21T10:32:07;96600.78;;;9.67;56.36
10869;BME280;62667;48.698;8.762;2024-02-21T10:34:36;96602.31;;;9.61;55.70
10869;BME280;62667;48.698;8.762;2024-02-21T10:37:03;96597.22;;;9.84;55.70
10869;BME280;62667;48.698;8.762;2024-02-21T10:39:40;96587.50;;;9.90;56.11
10869;BME280;62667;48.698;8.762;2024-02-21T10:42:11;96582.44;;;9.92;55.36
10869;BME280;62667;48.698;8.762;2024-02-21T10:44:45;96570.78;;;9.92;56.04
10869;BME280;62667;48.698;8.762;2024-02-21T10:47:16;96576.28;;;9.74;55.09
10869;BME280;62667;48.698;8.762;2024-02-21T10:49:56;96565.44;;;9.64;54.59
10869;BME280;62667;48.698;8.762;2024-02-21T10:52:31;96569.28;;;9.80;54.10
10869;BME280;62667;48.698;8.762;2024-02-21T10:55:07;96563.38;;;9.99;54.56
10869;BME280;62667;48.698;8.762;2024-02-21T10:57:37;96557.56;;;9.97;54.76
10869;BME280;62667;48.698;8.762;2024-02-21T11:00:05;96555.22;;;9.99;54.53
10869;BME280;62667;48.698;8.762;2024-02-21T11:02:33;96549.75;;;10.06;54.77
10869;BME280;62667;48.698;8.762;2024-02-21T11:05:03;96545.91;;;10.00;54.55
10869;BME280;62667;48.698;8.762;2024-02-21T11:07:36;96538.16;;;9.95;54.62
10869;BME280;62667;48.698;8.762;2024-02-21T11:10:04;96533.47;;;9.99;54.12
10869;BME280;62667;48.698;8.762;2024-02-21T11:12:33;96523.72;;;10.12;53.82
10869;BME280;62667;48.698;8.762;2024-02-21T11:15:06;96515.84;;;10.32;53.46
10869;BME280;62667;48.698;8.762;2024-02-21T11:17:33;96517.91;;;10.14;53.17
10869;BME280;62667;48.698;8.762;2024-02-21T11:20:11;96518.47;;;10.43;53.06
10869;BME280;62667;48.698;8.762;2024-02-21T11:22:41;96509.63;;;10.32;53.91
10869;BME280;62667;48.698;8.762;2024-02-21T11:25:09;96503.59;;;10.58;53.06
10869;BME280;62667;48.698;8.762;2024-02-21T11:27:37;96495.78;;;10.67;51.77
10869;BME280;62667;48.698;8.762;2024-02-21T11:30:05;96498.16;;;10.58;51.99
10869;BME280;62667;48.698;8.762;2024-02-21T11:32:35;96490.66;;;11.17;51.81
10869;BME280;62667;48.698;8.762;2024-02-21T11:35:03;96480.00;;;11.29;49.59
10869;BME280;62667;48.698;8.762;2024-02-21T11:37:32;96481.97;;;11.29;48.08
10869;BME280;62667;48.698;8.762;2024-02-21T11:40:06;96474.63;;;11.22;49.68
10869;BME280;62667;48.698;8.762;2024-02-21T11:42:36;96462.28;;;11.52;48.78
10869;BME280;62667;48.698;8.762;2024-02-21T11:45:03;96463.94;;;11.76;48.31
10869;BME280;62667;48.698;8.762;2024-02-21T11:47:34;96466.56;;;11.83;46.30
10869;BME280;62667;48.698;8.762;2024-02-21T11:50:04;96460.53;;;11.65;46.73
10869;BME280;62667;48.698;8.762;2024-02-21T11:52:32;96458.84;;;11.78;47.02
10869;BME280;62667;48.698;8.762;2024-02-21T11:55:00;96449.59;;;11.72;48.80
10869;BME280;62667;48.698;8.762;2024-02-21T11:57:30;96452.53;;;11.84;47.92
10869;BME280;62667;48.698;8.762;2024-02-21T11:59:56;96441.53;;;11.91;46.27
10869;BME280;62667;48.698;8.762;2024-02-21T12:02:23;96426.69;;;11.92;46.08
10869;BME280;62667;48.698;8.762;2024-02-21T12:04:50;96430.66;;;11.88;44.10
10869;BME280;62667;48.698;8.762;2024-02-21T12:07:17;96420.81;;;11.64;43.61
10869;BME280;62667;48.698;8.762;2024-02-21T12:09:45;96409.06;;;11.70;43.89
10869;BME280;62667;48.698;8.762;2024-02-21T12:12:12;96413.09;;;11.59;42.85
10869;BME280;62667;48.698;8.762;2024-02-21T12:14:40;96406.19;;;11.51;41.69
10869;BME280;62667;48.698;8.762;2024-02-21T12:17:07;96401.53;;;11.48;42.81
10869;BME280;62667;48.698;8.762;2024-02-21T12:19:33;96396.34;;;11.26;42.11
10869;BME280;62667;48.698;8.762;2024-02-21T12:22:00;96397.03;;;11.34;41.24
10869;BME280;62667;48.698;8.762;2024-02-21T12:24:31;96386.19;;;11.30;40.09
10869;BME280;62667;48.698;8.762;2024-02-21T12:26:59;96372.81;;;11.39;40.77
10869;BME280;62667;48.698;8.762;2024-02-21T12:29:28;96377.91;;;11.37;40.96
10869;BME280;62667;48.698;8.762;2024-02-21T12:31:55;96369.63;;;11.44;40.78
10869;BME280;62667;48.698;8.762;2024-02-21T12:34:23;96371.59;;;11.44;40.63
10869;BME280;62667;48.698;8.762;2024-02-21T12:36:52;96351.31;;;11.49;41.83
10869;BME280;62667;48.698;8.762;2024-02-21T12:39:20;96361.31;;;11.55;41.49
10869;BME280;62667;48.698;8.762;2024-02-21T12:41:46;96353.00;;;11.66;40.67
10869;BME280;62667;48.698;8.762;2024-02-21T12:44:14;96334.28;;;11.68;41.20
10869;BME280;62667;48.698;8.762;2024-02-21T12:46:43;96342.53;;;11.91;41.01
10869;BME280;62667;48.698;8.762;2024-02-21T12:49:12;96336.31;;;11.90;40.20
10869;BME280;62667;48.698;8.762;2024-02-21T12:51:39;96328.81;;;12.21;40.80
10869;BME280;62667;48.698;8.762;2024-02-21T12:54:07;96325.84;;;12.12;41.36
10869;BME280;62667;48.698;8.762;2024-02-21T12:56:36;96319.06;;;11.97;39.74
10869;BME280;62667;48.698;8.762;2024-02-21T12:59:03;96318.97;;;12.04;40.55
10869;BME280;62667;48.698;8.762;2024-02-21T13:01:31;96311.34;;;11.92;39.81
10869;BME280;62667;48.698;8.762;2024-02-21T13:03:57;96312.06;;;11.96;39.21
10869;BME280;62667;48.698;8.762;2024-02-21T13:06:26;96302.75;;;11.93;39.88
10869;BME280;62667;48.698;8.762;2024-02-21T13:08:53;96286.38;;;11.93;39.78
10869;BME280;62667;48.698;8.762;2024-02-21T13:11:27;96292.50;;;12.01;40.15
10869;BME280;62667;48.698;8.762;2024-02-21T13:14:02;96292.00;;;11.83;39.17
10869;BME280;62667;48.698;8.762;2024-02-21T13:16:34;96287.75;;;11.82;38.89